Time;durP1;ratioP1;P1;durP2;ratioP2;P2;SDS_P1;SDS_P2;PMS_P1;PMS_P2;Temp;Humidity;BMP_temperature;BMP_pressure;BME280_temperature;BME280_humidity;BME280_pressure;Samples;Min_cycle;Max_cycle;Signal;HPM_P1;HPM_P2
2024/03/25 00:00:10;;;;;;;6.18;2.00;;;;;;;;;;513858;28;1303;-77
2024/03/25 00:00:26;;;;;;;6.10;1.67;;;;;;;;;;513957;28;1697;-77
2024/03/25 00:00:41;;;;;;;6.10;1.70;;;;;;;;;;516480;28;1472;-77
2024/03/25 00:00:56;;;;;;;6.40;1.87;;;;;;;;;;517224;28;1467;-77
2024/03/25 00:01:12;;;;;;;6.53;2.00;;;;;;;;;;517363;28;1619;-77
2024/03/25 00:01:27;;;;;;;6.00;1.90;;;;;;;;;;514969;28;1280;-77
2024/03/25 00:01:42;;;;;;;6.40;1.87;;;;;;;;;;515300;28;1576;-77
2024/03/25 00:01:58;;;;;;;7.53;2.03;;;;;;;;;;516166;28;1552;-77
2024/03/25 00:02:13;;;;;;;6.13;1.90;;;;;;;;;;517422;28;1961;-77
2024/03/25 00:02:29;;;;;;;5.63;1.90;;;;;;;;;;517065;28;1293;-77
2024/03/25 00:02:44;;;;;;;6.50;1.95;;;;;;;;;;516691;28;1285;-77
2024/03/25 00:02:59;;;;;;;7.53;1.93;;;;;;;;;;517279;28;1599;-77
2024/03/25 00:03:15;;;;;;;7.93;2.00;;;;;;;;;;517521;28;1531;-77
2024/03/25 00:03:30;;;;;;;7.40;2.00;;;;;;;;;;519357;28;1249;-77
2024/03/25 00:03:45;;;;;;;7.47;2.10;;;;;;;;;;519179;28;1754;-77
2024/03/25 00:04:01;;;;;;;7.25;2.15;;;;;;;;;;519436;28;1916;-77
2024/03/25 00:04:16;;;;;;;6.93;2.10;;;;;;;;;;516826;28;1468;-77
2024/03/25 00:04:31;;;;;;;6.23;1.90;;;;;;;;;;517024;28;1236;-78
2024/03/25 00:04:46;;;;;;;6.90;1.90;;;;;;;;;;517161;28;1479;-77
2024/03/25 00:05:02;;;;;;;7.15;2.05;;;;;;;;;;515581;28;1500;-77
2024/03/25 00:05:22;;;;;;;6.87;2.10;;;;;;;;;;514882;28;1579;-77
2024/03/25 00:05:37;;;;;;;6.75;2.10;;;;;;;;;;514672;28;1685;-77
2024/03/25 00:05:52;;;;;;;7.20;2.00;;;;;;;;;;513230;28;1398;-78
2024/03/25 00:06:08;;;;;;;6.95;1.88;;;;;;;;;;513768;28;1419;-78
2024/03/25 00:06:23;;;;;;;6.70;1.80;;;;;;;;;;515194;28;1296;-77
2024/03/25 00:06:38;;;;;;;6.73;1.87;;;;;;;;;;515223;28;1520;-77
2024/03/25 00:06:54;;;;;;;6.57;2.05;;;;;;;;;;516224;28;1473;-77
2024/03/25 00:07:09;;;;;;;5.83;1.73;;;;;;;;;;515640;28;1755;-77
2024/03/25 00:07:24;;;;;;;5.68;1.83;;;;;;;;;;514795;28;1565;-78
2024/03/25 00:07:40;;;;;;;7.73;2.17;;;;;;;;;;514895;28;1516;-78
2024/03/25 00:07:55;;;;;;;7.93;2.07;;;;;;;;;;514864;28;1573;-77
2024/03/25 00:08:11;;;;;;;7.50;2.10;;;;;;;;;;515224;28;1444;-78
2024/03/25 00:08:26;;;;;;;6.87;1.80;;;;;;;;;;515038;28;1191;-77
2024/03/25 00:08:42;;;;;;;6.57;1.75;;;;;;;;;;515416;28;1485;-77
2024/03/25 00:08:57;;;;;;;7.23;2.00;;;;;;;;;;513148;28;1714;-77
2024/03/25 00:09:14;;;;;;;6.90;1.90;;;;;;;;;;513369;28;1485;-77
2024/03/25 00:09:29;;;;;;;6.75;1.83;;;;;;;;;;514695;28;1346;-77
2024/03/25 00:09:44;;;;;;;8.17;2.00;;;;;;;;;;515573;28;1584;-77
2024/03/25 00:10:00;;;;;;;7.82;2.00;;;;;;;;;;517119;28;1555;-78
2024/03/25 00:10:15;;;;;;;6.43;1.80;;;;;;;;;;515591;28;1505;-78
2024/03/25 00:10:30;;;;;;;7.37;2.00;;;;;;;;;;516294;28;1212;-77
2024/03/25 00:10:46;;;;;;;7.40;2.00;;;;;;;;;;516124;28;2011;-77
2024/03/25 00:11:01;;;;;;;6.07;1.70;;;;;;;;;;514632;28;1497;-77
2024/03/25 00:11:16;;;;;;;7.03;1.90;;;;;;;;;;518501;28;1495;-77
2024/03/25 00:11:32;;;;;;;8.13;2.20;;;;;;;;;;517672;28;1257;-77
2024/03/25 00:11:47;;;;;;;8.27;2.13;;;;;;;;;;517404;28;1574;-77
2024/03/25 00:12:04;;;;;;;7.97;2.15;;;;;;;;;;515547;28;1423;-78
2024/03/25 00:12:19;;;;;;;7.25;2.22;;;;;;;;;;514847;28;1728;-78
2024/03/25 00:12:35;;;;;;;6.87;2.00;;;;;;;;;;514121;28;1366;-77
2024/03/25 00:12:55;;;;;;;6.97;1.90;;;;;;;;;;513992;28;1667;-77
2024/03/25 00:13:10;;;;;;;6.00;1.80;;;;;;;;;;514565;28;1322;-77
2024/03/25 00:13:26;;;;;;;7.60;1.90;;;;;;;;;;514379;28;1275;-77
2024/03/25 00:13:41;;;;;;;6.90;1.90;;;;;;;;;;515212;28;1509;-77
2024/03/25 00:13:56;;;;;;;5.80;1.80;;;;;;;;;;514377;28;1379;-78
2024/03/25 00:14:12;;;;;;;6.63;1.97;;;;;;;;;;516274;28;1370;-77
2024/03/25 00:14:27;;;;;;;6.37;1.83;;;;;;;;;;515558;28;1270;-78
2024/03/25 00:14:43;;;;;;;6.30;1.83;;;;;;;;;;514232;28;1607;-77
2024/03/25 00:14:59;;;;;;;6.78;1.90;;;;;;;;;;515504;28;1382;-76
2024/03/25 00:15:14;;;;;;;6.27;1.70;;;;;;;;;;517541;28;1588;-77
2024/03/25 00:15:30;;;;;;;6.65;1.90;;;;;;;;;;517110;28;1234;-78
2024/03/25 00:15:45;;;;;;;7.33;2.00;;;;;;;;;;515173;28;2049;-78
2024/03/25 00:16:01;;;;;;;7.93;1.97;;;;;;;;;;515147;28;1284;-78
2024/03/25 00:16:16;;;;;;;8.20;2.20;;;;;;;;;;515322;28;1578;-78
2024/03/25 00:16:31;;;;;;;6.47;2.10;;;;;;;;;;515644;28;1278;-78
2024/03/25 00:16:47;;;;;;;6.07;1.93;;;;;;;;;;514862;28;1951;-77
2024/03/25 00:17:02;;;;;;;6.80;2.10;;;;;;;;;;515363;28;1374;-78
2024/03/25 00:17:19;;;;;;;7.07;1.93;;;;;;;;;;514969;28;1741;-77
2024/03/25 00:17:34;;;;;;;8.50;2.00;;;;;;;;;;513629;28;1394;-77
2024/03/25 00:17:50;;;;;;;8.73;2.40;;;;;;;;;;514518;28;1528;-77
2024/03/25 00:18:05;;;;;;;6.85;2.13;;;;;;;;;;511366;29;1728;-78
2024/03/25 00:18:21;;;;;;;5.17;1.80;;;;;;;;;;513241;28;1779;-77
2024/03/25 00:18:36;;;;;;;6.68;1.90;;;;;;;;;;516042;28;1329;-77
2024/03/25 00:18:51;;;;;;;7.13;2.00;;;;;;;;;;515152;28;3089;-77
2024/03/25 00:19:07;;;;;;;5.90;1.90;;;;;;;;;;515636;28;969;-77
2024/03/25 00:19:22;;;;;;;6.40;1.80;;;;;;;;;;515457;28;1645;-77
2024/03/25 00:19:37;;;;;;;8.53;1.90;;;;;;;;;;516725;28;1620;-77
2024/03/25 00:19:53;;;;;;;7.83;2.00;;;;;;;;;;517746;28;800;-77
2024/03/25 00:20:09;;;;;;;6.90;2.00;;;;;;;;;;515648;28;1228;-77
2024/03/25 00:20:24;;;;;;;7.97;2.17;;;;;;;;;;515439;28;1111;-77
2024/03/25 00:20:40;;;;;;;6.90;2.10;;;;;;;;;;515541;28;2045;-77
2024/03/25 00:20:55;;;;;;;5.43;1.87;;;;;;;;;;515622;28;1297;-78
2024/03/25 00:21:10;;;;;;;6.65;1.80;;;;;;;;;;515996;28;1611;-77
2024/03/25 00:21:25;;;;;;;8.40;2.00;;;;;;;;;;515231;28;1312;-77
2024/03/25 00:21:42;;;;;;;7.60;2.03;;;;;;;;;;515739;28;1021;-77
2024/03/25 00:21:57;;;;;;;5.68;2.00;;;;;;;;;;515757;28;922;-77
2024/03/25 00:22:12;;;;;;;5.85;1.92;;;;;;;;;;515565;28;1290;-77
2024/03/25 00:22:27;;;;;;;6.73;1.80;;;;;;;;;;514617;28;1714;-77
2024/03/25 00:22:43;;;;;;;6.60;1.80;;;;;;;;;;515595;28;1045;-78
2024/03/25 00:22:58;;;;;;;6.32;1.92;;;;;;;;;;513782;28;1213;-77
2024/03/25 00:23:14;;;;;;;6.03;2.00;;;;;;;;;;513677;28;1199;-77
2024/03/25 00:23:30;;;;;;;7.30;1.92;;;;;;;;;;513488;28;1200;-77
2024/03/25 00:23:45;;;;;;;8.68;2.22;;;;;;;;;;513726;28;953;-78
2024/03/25 00:24:00;;;;;;;7.47;2.27;;;;;;;;;;513933;28;842;-77
2024/03/25 00:24:16;;;;;;;8.80;2.10;;;;;;;;;;513540;28;2051;-78
2024/03/25 00:24:31;;;;;;;8.23;2.00;;;;;;;;;;513192;28;1322;-77
2024/03/25 00:24:47;;;;;;;7.67;2.00;;;;;;;;;;513928;28;1334;-77
2024/03/25 00:25:03;;;;;;;9.00;2.30;;;;;;;;;;513917;28;1244;-77
2024/03/25 00:25:18;;;;;;;7.47;2.08;;;;;;;;;;515517;28;1317;-78
2024/03/25 00:25:34;;;;;;;6.60;1.87;;;;;;;;;;515459;28;1029;-77
2024/03/25 00:25:49;;;;;;;7.20;2.10;;;;;;;;;;515451;28;1947;-77
2024/03/25 00:26:04;;;;;;;6.80;2.00;;;;;;;;;;513610;28;1296;-78
2024/03/25 00:26:19;;;;;;;5.87;1.80;;;;;;;;;;515441;28;1396;-76
2024/03/25 00:26:35;;;;;;;6.60;1.70;;;;;;;;;;517372;28;1203;-77
2024/03/25 00:26:50;;;;;;;6.90;1.87;;;;;;;;;;514586;28;1200;-78
2024/03/25 00:27:05;;;;;;;6.80;2.03;;;;;;;;;;515485;28;1424;-77
2024/03/25 00:27:21;;;;;;;8.43;2.33;;;;;;;;;;515493;28;1208;-77
2024/03/25 00:27:36;;;;;;;7.53;2.20;;;;;;;;;;515378;28;1935;-77
2024/03/25 00:27:51;;;;;;;7.00;1.97;;;;;;;;;;515456;28;1425;-78
2024/03/25 00:28:06;;;;;;;7.60;1.87;;;;;;;;;;515514;28;1291;-76
2024/03/25 00:28:22;;;;;;;6.80;1.70;;;;;;;;;;515229;28;1197;-77
2024/03/25 00:28:38;;;;;;;6.40;1.83;;;;;;;;;;513479;28;1217;-77
2024/03/25 00:28:53;;;;;;;6.63;2.05;;;;;;;;;;513398;28;1306;-77
2024/03/25 00:29:08;;;;;;;7.40;2.03;;;;;;;;;;513368;28;2127;-78
2024/03/25 00:29:24;;;;;;;6.93;2.00;;;;;;;;;;513216;28;1376;-77
2024/03/25 00:29:39;;;;;;;5.63;1.73;;;;;;;;;;512903;28;1304;-77
2024/03/25 00:29:55;;;;;;;5.50;1.60;;;;;;;;;;513465;28;1370;-78
2024/03/25 00:30:11;;;;;;;5.70;1.70;;;;;;;;;;515278;28;1255;-77
2024/03/25 00:30:26;;;;;;;5.93;1.75;;;;;;;;;;515423;28;886;-77
2024/03/25 00:30:42;;;;;;;5.45;1.83;;;;;;;;;;515178;28;2055;-78
2024/03/25 00:30:57;;;;;;;5.70;1.87;;;;;;;;;;515196;28;1916;-77
2024/03/25 00:31:13;;;;;;;7.60;1.98;;;;;;;;;;515279;28;1895;-77
2024/03/25 00:31:28;;;;;;;7.13;1.87;;;;;;;;;;515067;28;1137;-77
2024/03/25 00:31:43;;;;;;;6.20;1.80;;;;;;;;;;513694;28;1021;-77
2024/03/25 00:31:59;;;;;;;6.95;1.80;;;;;;;;;;513657;28;1296;-78
2024/03/25 00:32:14;;;;;;;6.87;1.70;;;;;;;;;;513546;28;827;-77
2024/03/25 00:32:30;;;;;;;6.90;2.00;;;;;;;;;;515287;28;1677;-77
2024/03/25 00:32:46;;;;;;;7.77;2.30;;;;;;;;;;515382;28;945;-77
2024/03/25 00:33:01;;;;;;;8.70;2.08;;;;;;;;;;517050;28;1205;-78
2024/03/25 00:33:16;;;;;;;7.87;1.87;;;;;;;;;;517487;28;1191;-78
2024/03/25 00:33:32;;;;;;;6.55;1.90;;;;;;;;;;515937;28;1386;-77
2024/03/25 00:33:47;;;;;;;7.73;2.03;;;;;;;;;;516163;28;914;-77
2024/03/25 00:34:03;;;;;;;7.07;2.13;;;;;;;;;;515589;28;1356;-77
2024/03/25 00:34:18;;;;;;;6.50;2.00;;;;;;;;;;515340;28;2066;-77
2024/03/25 00:34:34;;;;;;;7.10;1.97;;;;;;;;;;514491;28;1045;-78
2024/03/25 00:34:49;;;;;;;7.70;2.17;;;;;;;;;;515627;28;991;-78
2024/03/25 00:35:05;;;;;;;8.35;2.22;;;;;;;;;;513825;28;1189;-77
2024/03/25 00:35:20;;;;;;;7.07;2.10;;;;;;;;;;515726;28;1204;-77
2024/03/25 00:35:36;;;;;;;6.17;1.90;;;;;;;;;;517405;28;1384;-77
2024/03/25 00:35:52;;;;;;;6.03;1.70;;;;;;;;;;517727;28;1946;-77
2024/03/25 00:36:07;;;;;;;6.25;1.85;;;;;;;;;;519673;28;882;-78
2024/03/25 00:36:23;;;;;;;6.50;2.03;;;;;;;;;;517303;28;1160;-77
2024/03/25 00:36:38;;;;;;;6.20;1.80;;;;;;;;;;517624;28;2021;-77
2024/03/25 00:36:53;;;;;;;5.53;1.80;;;;;;;;;;515425;28;1294;-78
2024/03/25 00:37:09;;;;;;;6.53;2.03;;;;;;;;;;513456;28;1196;-77
2024/03/25 00:37:24;;;;;;;7.03;1.80;;;;;;;;;;513306;28;1119;-77
2024/03/25 00:37:40;;;;;;;6.47;1.80;;;;;;;;;;511712;28;2005;-77
2024/03/25 00:37:55;;;;;;;6.63;1.88;;;;;;;;;;511418;29;1267;-77
2024/03/25 00:38:10;;;;;;;6.53;1.80;;;;;;;;;;511602;28;1245;-77
2024/03/25 00:38:26;;;;;;;5.20;1.73;;;;;;;;;;513319;28;1053;-78
2024/03/25 00:38:41;;;;;;;5.17;1.83;;;;;;;;;;515409;28;1548;-77
2024/03/25 00:38:56;;;;;;;5.47;1.88;;;;;;;;;;514805;28;878;-77
2024/03/25 00:39:13;;;;;;;4.87;1.67;;;;;;;;;;515452;28;1248;-78
2024/03/25 00:39:29;;;;;;;6.72;1.90;;;;;;;;;;508055;28;1404;-78
2024/03/25 00:39:45;;;;;;;8.70;2.28;;;;;;;;;;515412;28;1364;-77
2024/03/25 00:40:00;;;;;;;6.60;1.88;;;;;;;;;;515583;28;823;-77
2024/03/25 00:40:16;;;;;;;4.65;1.50;;;;;;;;;;515280;28;1359;-77
2024/03/25 00:40:31;;;;;;;4.37;1.50;;;;;;;;;;516120;28;1124;-78
2024/03/25 00:40:46;;;;;;;5.63;1.58;;;;;;;;;;515098;28;1361;-77
2024/03/25 00:41:02;;;;;;;6.30;1.60;;;;;;;;;;515451;28;982;-77
2024/03/25 00:41:17;;;;;;;6.33;1.70;;;;;;;;;;515581;28;1103;-77
2024/03/25 00:41:32;;;;;;;5.88;1.77;;;;;;;;;;515076;28;1214;-77
2024/03/25 00:41:47;;;;;;;6.93;1.80;;;;;;;;;;514945;28;1508;-78
2024/03/25 00:42:03;;;;;;;8.03;1.90;;;;;;;;;;515148;28;1277;-77
2024/03/25 00:42:18;;;;;;;6.28;1.83;;;;;;;;;;515115;28;1009;-77
2024/03/25 00:42:34;;;;;;;5.73;1.90;;;;;;;;;;515207;28;1318;-77
2024/03/25 00:42:49;;;;;;;6.27;1.77;;;;;;;;;;515255;28;1040;-77
2024/03/25 00:43:04;;;;;;;6.15;1.70;;;;;;;;;;515278;28;1033;-77
2024/03/25 00:43:19;;;;;;;6.30;1.80;;;;;;;;;;514826;28;1336;-77
2024/03/25 00:43:35;;;;;;;6.50;1.90;;;;;;;;;;515027;28;1352;-77
2024/03/25 00:43:50;;;;;;;6.17;1.87;;;;;;;;;;515258;28;1292;-76
2024/03/25 00:44:05;;;;;;;6.57;1.80;;;;;;;;;;515538;28;891;-77
2024/03/25 00:44:21;;;;;;;7.60;1.70;;;;;;;;;;515461;28;1060;-77
2024/03/25 00:44:36;;;;;;;6.93;1.60;;;;;;;;;;514612;28;1352;-77
2024/03/25 00:44:51;;;;;;;5.95;1.75;;;;;;;;;;515408;28;1390;-77
2024/03/25 00:45:07;;;;;;;6.50;1.80;;;;;;;;;;515064;28;1592;-77
2024/03/25 00:45:25;;;;;;;6.78;1.95;;;;;;;;;;514937;28;1604;-77
2024/03/25 00:45:40;;;;;;;6.07;1.88;;;;;;;;;;515895;28;875;-77
2024/03/25 00:45:56;;;;;;;5.43;1.60;;;;;;;;;;517286;28;1182;-77
2024/03/25 00:46:11;;;;;;;5.45;1.60;;;;;;;;;;515133;28;1281;-77
2024/03/25 00:46:27;;;;;;;5.90;1.70;;;;;;;;;;515523;28;1327;-77
2024/03/25 00:46:43;;;;;;;6.97;1.70;;;;;;;;;;514565;28;1191;-77
2024/03/25 00:46:58;;;;;;;7.40;1.70;;;;;;;;;;513362;28;1714;-78
2024/03/25 00:47:13;;;;;;;6.47;1.70;;;;;;;;;;517176;28;1249;-77
2024/03/25 00:47:29;;;;;;;6.00;1.70;;;;;;;;;;517195;28;1127;-77
2024/03/25 00:47:44;;;;;;;7.23;1.93;;;;;;;;;;515301;28;1268;-76
2024/03/25 00:47:59;;;;;;;6.93;1.80;;;;;;;;;;515760;28;849;-77
2024/03/25 00:48:15;;;;;;;6.47;1.70;;;;;;;;;;517306;28;881;-78
2024/03/25 00:48:30;;;;;;;7.13;1.97;;;;;;;;;;516406;28;1213;-79
2024/03/25 00:48:45;;;;;;;7.10;1.90;;;;;;;;;;519399;28;932;-77
2024/03/25 00:49:01;;;;;;;8.07;1.90;;;;;;;;;;519431;28;826;-77
2024/03/25 00:49:16;;;;;;;8.25;2.00;;;;;;;;;;519102;28;1332;-78
2024/03/25 00:49:31;;;;;;;7.90;1.90;;;;;;;;;;517237;28;842;-77
2024/03/25 00:49:46;;;;;;;7.33;1.90;;;;;;;;;;517249;28;1262;-78
2024/03/25 00:50:02;;;;;;;6.37;1.80;;;;;;;;;;517232;28;1053;-78
2024/03/25 00:50:17;;;;;;;7.67;1.90;;;;;;;;;;516762;28;1383;-77
2024/03/25 00:50:33;;;;;;;7.67;2.07;;;;;;;;;;517036;28;1654;-77
2024/03/25 00:50:48;;;;;;;6.05;1.83;;;;;;;;;;517312;28;1546;-77
2024/03/25 00:51:04;;;;;;;5.30;1.77;;;;;;;;;;516422;28;981;-78
2024/03/25 00:51:19;;;;;;;5.18;1.88;;;;;;;;;;517006;28;1156;-78
2024/03/25 00:51:34;;;;;;;5.57;1.80;;;;;;;;;;515399;28;1031;-78
2024/03/25 00:51:50;;;;;;;4.93;1.60;;;;;;;;;;517018;28;1207;-78
2024/03/25 00:52:05;;;;;;;5.47;1.77;;;;;;;;;;517311;28;854;-77
2024/03/25 00:52:20;;;;;;;6.33;1.87;;;;;;;;;;517448;28;1243;-77
2024/03/25 00:52:36;;;;;;;7.70;1.80;;;;;;;;;;515215;28;1397;-77
2024/03/25 00:52:52;;;;;;;8.07;1.90;;;;;;;;;;515107;28;854;-77
2024/03/25 00:53:07;;;;;;;5.95;1.80;;;;;;;;;;514843;28;1261;-77
2024/03/25 00:53:23;;;;;;;4.43;1.50;;;;;;;;;;513834;28;1356;-77
2024/03/25 00:53:38;;;;;;;5.70;1.60;;;;;;;;;;513683;28;759;-77
2024/03/25 00:53:53;;;;;;;6.33;1.70;;;;;;;;;;515313;28;902;-77
2024/03/25 00:54:09;;;;;;;5.93;1.70;;;;;;;;;;515234;28;1299;-77
2024/03/25 00:54:24;;;;;;;6.22;1.90;;;;;;;;;;514486;28;1354;-77
2024/03/25 00:54:39;;;;;;;6.07;1.90;;;;;;;;;;514667;28;1479;-77
2024/03/25 00:54:54;;;;;;;6.33;1.80;;;;;;;;;;513382;28;1162;-77
2024/03/25 00:55:10;;;;;;;5.35;1.70;;;;;;;;;;513237;28;1001;-77
2024/03/25 00:55:25;;;;;;;5.57;1.67;;;;;;;;;;511141;28;1190;-77
2024/03/25 00:55:41;;;;;;;6.27;1.80;;;;;;;;;;512465;28;1240;-77
2024/03/25 00:55:56;;;;;;;5.63;1.80;;;;;;;;;;511699;28;1316;-77
2024/03/25 00:56:11;;;;;;;7.67;2.00;;;;;;;;;;511432;28;1160;-77
2024/03/25 00:56:27;;;;;;;8.60;1.90;;;;;;;;;;513185;28;1097;-77
2024/03/25 00:56:44;;;;;;;6.77;1.80;;;;;;;;;;515297;28;1903;-78
2024/03/25 00:56:59;;;;;;;5.78;1.70;;;;;;;;;;516576;28;917;-77
2024/03/25 00:57:14;;;;;;;6.87;1.70;;;;;;;;;;515146;28;1320;-77
2024/03/25 00:57:30;;;;;;;7.88;1.77;;;;;;;;;;515329;28;1336;-77
2024/03/25 00:57:45;;;;;;;6.43;1.80;;;;;;;;;;517348;28;1182;-78
2024/03/25 00:58:02;;;;;;;6.33;2.03;;;;;;;;;;516386;28;1153;-77
2024/03/25 00:58:18;;;;;;;6.22;2.00;;;;;;;;;;517215;28;822;-78
2024/03/25 00:58:33;;;;;;;5.13;1.77;;;;;;;;;;517054;28;1337;-77
2024/03/25 00:58:48;;;;;;;5.90;1.87;;;;;;;;;;517426;28;794;-77
2024/03/25 00:59:04;;;;;;;6.20;1.77;;;;;;;;;;517253;28;1142;-78
2024/03/25 00:59:20;;;;;;;5.70;1.65;;;;;;;;;;517249;28;1349;-77
2024/03/25 00:59:35;;;;;;;6.03;1.70;;;;;;;;;;516881;28;850;-78
2024/03/25 00:59:50;;;;;;;6.10;1.60;;;;;;;;;;515248;28;1275;-77
2024/03/25 01:00:06;;;;;;;5.95;1.70;;;;;;;;;;515302;28;1196;-77
2024/03/25 01:00:22;;;;;;;6.95;1.90;;;;;;;;;;515575;28;982;-77
2024/03/25 01:00:37;;;;;;;5.90;1.70;;;;;;;;;;515126;28;1280;-78
2024/03/25 01:00:52;;;;;;;5.93;1.67;;;;;;;;;;515217;28;1001;-78
2024/03/25 01:01:07;;;;;;;8.10;1.92;;;;;;;;;;513378;28;1277;-77
2024/03/25 01:01:23;;;;;;;8.17;2.20;;;;;;;;;;514771;28;1161;-77
2024/03/25 01:01:38;;;;;;;7.03;2.20;;;;;;;;;;515289;28;811;-77
2024/03/25 01:01:53;;;;;;;6.45;2.03;;;;;;;;;;515255;28;1155;-77
2024/03/25 01:02:09;;;;;;;6.80;2.07;;;;;;;;;;517261;28;1179;-77
2024/03/25 01:02:24;;;;;;;6.23;1.90;;;;;;;;;;516973;28;1373;-77
2024/03/25 01:02:39;;;;;;;5.63;1.70;;;;;;;;;;517220;28;1085;-78
2024/03/25 01:02:54;;;;;;;5.80;1.77;;;;;;;;;;517535;28;1227;-77
2024/03/25 01:03:10;;;;;;;6.87;2.00;;;;;;;;;;518736;28;862;-78
2024/03/25 01:03:25;;;;;;;7.60;2.00;;;;;;;;;;517117;28;1212;-77
2024/03/25 01:03:40;;;;;;;7.13;1.75;;;;;;;;;;517160;28;949;-77
2024/03/25 01:03:56;;;;;;;6.90;1.90;;;;;;;;;;517248;28;1275;-77
2024/03/25 01:04:11;;;;;;;7.50;2.17;;;;;;;;;;517275;28;1289;-78
2024/03/25 01:04:26;;;;;;;7.43;2.10;;;;;;;;;;517062;28;1204;-77
2024/03/25 01:04:42;;;;;;;7.40;2.20;;;;;;;;;;514977;28;1181;-77
2024/03/25 01:04:59;;;;;;;7.80;2.15;;;;;;;;;;515415;28;916;-77
2024/03/25 01:05:15;;;;;;;6.55;1.85;;;;;;;;;;515254;28;1117;-77
2024/03/25 01:05:30;;;;;;;7.80;1.80;;;;;;;;;;515031;28;973;-77
2024/03/25 01:05:45;;;;;;;7.75;1.70;;;;;;;;;;515129;28;1307;-77
2024/03/25 01:06:01;;;;;;;6.57;1.70;;;;;;;;;;515739;28;890;-78
2024/03/25 01:06:16;;;;;;;7.03;1.90;;;;;;;;;;517258;28;1053;-77
2024/03/25 01:06:31;;;;;;;7.63;1.80;;;;;;;;;;517706;28;930;-77
2024/03/25 01:06:47;;;;;;;7.73;1.83;;;;;;;;;;517151;28;1378;-77
2024/03/25 01:07:03;;;;;;;8.57;2.00;;;;;;;;;;517431;28;782;-77
2024/03/25 01:07:18;;;;;;;6.78;1.80;;;;;;;;;;517174;28;912;-77
2024/03/25 01:07:33;;;;;;;4.50;1.67;;;;;;;;;;517416;28;1009;-77
2024/03/25 01:07:49;;;;;;;5.30;1.80;;;;;;;;;;517062;28;1148;-77
2024/03/25 01:08:04;;;;;;;7.10;1.90;;;;;;;;;;517334;28;1376;-77
2024/03/25 01:08:19;;;;;;;7.38;1.75;;;;;;;;;;517176;28;1108;-77
2024/03/25 01:08:35;;;;;;;5.40;1.43;;;;;;;;;;517246;28;1092;-77
2024/03/25 01:08:51;;;;;;;4.63;1.48;;;;;;;;;;514966;28;1329;-77
2024/03/25 01:09:07;;;;;;;5.07;1.60;;;;;;;;;;515180;28;1388;-77
2024/03/25 01:09:22;;;;;;;6.20;2.00;;;;;;;;;;514312;28;1370;-77
2024/03/25 01:09:38;;;;;;;6.43;1.93;;;;;;;;;;514810;28;1429;-78
2024/03/25 01:09:53;;;;;;;6.72;1.80;;;;;;;;;;515189;28;926;-77
2024/03/25 01:10:08;;;;;;;6.57;1.90;;;;;;;;;;515215;28;1157;-77
2024/03/25 01:10:24;;;;;;;6.67;1.93;;;;;;;;;;516345;28;1053;-77
2024/03/25 01:10:39;;;;;;;7.53;1.88;;;;;;;;;;517047;28;1346;-77
2024/03/25 01:10:55;;;;;;;6.53;1.60;;;;;;;;;;517283;28;795;-77
2024/03/25 01:11:10;;;;;;;5.63;1.77;;;;;;;;;;517632;28;807;-78
2024/03/25 01:11:26;;;;;;;7.90;2.17;;;;;;;;;;519109;28;1140;-77
2024/03/25 01:11:41;;;;;;;8.80;2.20;;;;;;;;;;519159;28;1509;-77
2024/03/25 01:11:56;;;;;;;8.43;2.07;;;;;;;;;;519159;28;1304;-78
2024/03/25 01:12:12;;;;;;;8.77;2.20;;;;;;;;;;519119;28;1392;-78
2024/03/25 01:12:27;;;;;;;7.60;2.22;;;;;;;;;;519100;28;1314;-77
2024/03/25 01:12:42;;;;;;;8.17;2.37;;;;;;;;;;517137;28;1247;-78
2024/03/25 01:12:58;;;;;;;8.37;2.20;;;;;;;;;;515215;28;1619;-77
2024/03/25 01:13:13;;;;;;;8.52;2.00;;;;;;;;;;513187;28;1067;-78
2024/03/25 01:13:28;;;;;;;7.57;2.00;;;;;;;;;;513021;28;1232;-78
2024/03/25 01:13:44;;;;;;;6.53;2.00;;;;;;;;;;511117;29;1179;-77
2024/03/25 01:13:59;;;;;;;5.63;1.80;;;;;;;;;;513238;28;1142;-77
2024/03/25 01:14:14;;;;;;;6.50;1.70;;;;;;;;;;515145;28;1376;-77
2024/03/25 01:14:29;;;;;;;7.83;2.00;;;;;;;;;;512747;28;1278;-78
2024/03/25 01:14:45;;;;;;;7.43;2.08;;;;;;;;;;512983;28;922;-78
2024/03/25 01:15:02;;;;;;;7.10;2.03;;;;;;;;;;513496;28;886;-78
2024/03/25 01:15:17;;;;;;;7.57;2.15;;;;;;;;;;514396;28;926;-78
2024/03/25 01:15:32;;;;;;;7.80;2.00;;;;;;;;;;514936;28;1037;-77
2024/03/25 01:15:47;;;;;;;7.93;1.87;;;;;;;;;;515155;28;1263;-77
2024/03/25 01:16:03;;;;;;;6.15;1.88;;;;;;;;;;513578;28;1249;-77
2024/03/25 01:16:18;;;;;;;4.87;1.80;;;;;;;;;;515212;28;1162;-78
2024/03/25 01:16:34;;;;;;;6.07;1.93;;;;;;;;;;517144;28;1302;-78
2024/03/25 01:16:49;;;;;;;7.30;1.97;;;;;;;;;;515212;28;1914;-77
2024/03/25 01:17:04;;;;;;;8.30;2.00;;;;;;;;;;515133;28;929;-77
2024/03/25 01:17:20;;;;;;;7.20;1.97;;;;;;;;;;515064;28;1338;-77
2024/03/25 01:17:38;;;;;;;5.53;1.80;;;;;;;;;;515264;28;1311;-77
2024/03/25 01:17:53;;;;;;;6.40;1.85;;;;;;;;;;517245;28;1060;-77
2024/03/25 01:18:09;;;;;;;6.80;1.98;;;;;;;;;;517316;28;810;-77
2024/03/25 01:18:24;;;;;;;6.73;2.03;;;;;;;;;;516981;28;1053;-78
2024/03/25 01:18:39;;;;;;;7.30;2.30;;;;;;;;;;517352;28;1315;-77
2024/03/25 01:18:55;;;;;;;8.20;2.30;;;;;;;;;;515207;28;1263;-77
2024/03/25 01:19:10;;;;;;;8.67;2.10;;;;;;;;;;515120;28;775;-78
2024/03/25 01:19:25;;;;;;;7.67;1.90;;;;;;;;;;515514;28;994;-78
2024/03/25 01:19:41;;;;;;;6.50;1.90;;;;;;;;;;516231;28;1349;-78
2024/03/25 01:19:56;;;;;;;6.20;1.80;;;;;;;;;;515039;28;1241;-78
2024/03/25 01:20:11;;;;;;;7.43;1.80;;;;;;;;;;514911;28;1180;-78
2024/03/25 01:20:27;;;;;;;8.35;1.98;;;;;;;;;;512755;28;1316;-77
2024/03/25 01:20:42;;;;;;;7.30;1.90;;;;;;;;;;513195;28;1359;-77
2024/03/25 01:20:57;;;;;;;6.47;1.83;;;;;;;;;;515279;28;936;-78
2024/03/25 01:21:13;;;;;;;6.50;2.00;;;;;;;;;;514711;28;1216;-77
2024/03/25 01:21:28;;;;;;;6.67;1.90;;;;;;;;;;512667;28;1248;-77
2024/03/25 01:21:44;;;;;;;8.32;2.00;;;;;;;;;;512748;28;1291;-78
2024/03/25 01:21:59;;;;;;;8.33;2.10;;;;;;;;;;512881;28;1378;-78
2024/03/25 01:22:14;;;;;;;6.90;1.90;;;;;;;;;;515175;28;1516;-78
2024/03/25 01:22:31;;;;;;;7.32;1.80;;;;;;;;;;516723;28;1404;-77
2024/03/25 01:22:46;;;;;;;7.43;1.90;;;;;;;;;;519066;28;1343;-78
2024/03/25 01:23:01;;;;;;;7.23;2.10;;;;;;;;;;518581;28;1613;-78
2024/03/25 01:23:17;;;;;;;6.55;2.00;;;;;;;;;;517755;28;1646;-78
2024/03/25 01:23:32;;;;;;;5.10;1.83;;;;;;;;;;517913;28;1601;-77
2024/03/25 01:23:47;;;;;;;5.00;1.60;;;;;;;;;;514793;28;1536;-78
2024/03/25 01:24:03;;;;;;;6.15;1.70;;;;;;;;;;515984;28;1424;-77
2024/03/25 01:24:18;;;;;;;5.63;1.80;;;;;;;;;;514878;28;1342;-77
2024/03/25 01:24:33;;;;;;;6.40;1.90;;;;;;;;;;515633;28;1270;-78
2024/03/25 01:24:49;;;;;;;8.07;1.90;;;;;;;;;;516621;28;1543;-77
2024/03/25 01:25:06;;;;;;;6.78;1.73;;;;;;;;;;517224;28;1535;-78
2024/03/25 01:25:22;;;;;;;6.10;1.90;;;;;;;;;;518708;28;1613;-78
2024/03/25 01:25:37;;;;;;;6.13;2.00;;;;;;;;;;518283;28;1479;-79
2024/03/25 01:25:52;;;;;;;6.38;2.13;;;;;;;;;;518818;28;1371;-78
2024/03/25 01:26:08;;;;;;;8.30;2.20;;;;;;;;;;518806;28;1482;-79
2024/03/25 01:26:23;;;;;;;9.93;2.17;;;;;;;;;;517780;28;1115;-78
2024/03/25 01:26:38;;;;;;;9.65;2.00;;;;;;;;;;516379;28;1507;-79
2024/03/25 01:26:54;;;;;;;8.03;2.10;;;;;;;;;;517401;28;1492;-78
2024/03/25 01:27:09;;;;;;;5.93;2.00;;;;;;;;;;516685;28;1520;-78
2024/03/25 01:27:24;;;;;;;5.57;1.70;;;;;;;;;;515938;28;1382;-78
2024/03/25 01:27:40;;;;;;;6.20;1.80;;;;;;;;;;516631;28;1413;-78
2024/03/25 01:27:55;;;;;;;5.53;1.90;;;;;;;;;;516913;28;1511;-78
2024/03/25 01:28:10;;;;;;;4.83;1.67;;;;;;;;;;516786;28;1559;-77
2024/03/25 01:28:26;;;;;;;5.30;1.60;;;;;;;;;;516832;28;1148;-78
2024/03/25 01:28:41;;;;;;;5.83;1.80;;;;;;;;;;516454;28;1628;-78
2024/03/25 01:28:56;;;;;;;7.15;1.90;;;;;;;;;;517112;28;1433;-77
2024/03/25 01:29:12;;;;;;;7.03;1.80;;;;;;;;;;516750;28;1507;-78
2024/03/25 01:29:27;;;;;;;5.15;1.60;;;;;;;;;;516284;28;1339;-77
2024/03/25 01:29:43;;;;;;;5.50;1.80;;;;;;;;;;516542;28;1575;-77
2024/03/25 01:29:58;;;;;;;6.87;2.10;;;;;;;;;;514766;28;1524;-78
2024/03/25 01:30:14;;;;;;;7.85;2.15;;;;;;;;;;513606;28;1469;-78
2024/03/25 01:30:29;;;;;;;7.05;1.83;;;;;;;;;;514982;28;1225;-78
2024/03/25 01:30:45;;;;;;;5.30;1.60;;;;;;;;;;516950;28;1551;-77
2024/03/25 01:31:00;;;;;;;7.00;1.90;;;;;;;;;;514619;28;1516;-78
2024/03/25 01:31:15;;;;;;;7.88;2.03;;;;;;;;;;514993;28;1497;-78
2024/03/25 01:31:31;;;;;;;7.60;2.10;;;;;;;;;;514383;28;1378;-78
2024/03/25 01:31:46;;;;;;;7.57;2.20;;;;;;;;;;515301;28;1489;-77
2024/03/25 01:32:02;;;;;;;6.35;2.00;;;;;;;;;;514532;28;1582;-78
2024/03/25 01:32:17;;;;;;;5.97;1.80;;;;;;;;;;514625;28;1529;-77
2024/03/25 01:32:33;;;;;;;7.13;2.00;;;;;;;;;;514756;28;1208;-77
2024/03/25 01:32:49;;;;;;;6.93;1.85;;;;;;;;;;514930;28;1528;-77
2024/03/25 01:33:05;;;;;;;6.77;1.90;;;;;;;;;;514906;28;1378;-78
2024/03/25 01:33:20;;;;;;;8.32;2.20;;;;;;;;;;515076;28;1413;-78
2024/03/25 01:33:35;;;;;;;7.07;2.00;;;;;;;;;;514709;28;1272;-76
2024/03/25 01:33:51;;;;;;;6.47;2.00;;;;;;;;;;513029;28;1550;-77
2024/03/25 01:34:06;;;;;;;6.47;2.03;;;;;;;;;;514947;28;1446;-78
2024/03/25 01:34:21;;;;;;;5.23;1.77;;;;;;;;;;515181;28;1321;-77
2024/03/25 01:34:36;;;;;;;6.17;1.90;;;;;;;;;;514334;28;1322;-78
2024/03/25 01:34:52;;;;;;;8.10;2.00;;;;;;;;;;514620;28;1496;-77
2024/03/25 01:35:08;;;;;;;8.43;1.90;;;;;;;;;;514769;28;1294;-77
2024/03/25 01:35:23;;;;;;;9.07;2.07;;;;;;;;;;512682;28;1289;-77
2024/03/25 01:35:38;;;;;;;8.52;2.10;;;;;;;;;;512268;28;1367;-77
2024/03/25 01:35:55;;;;;;;6.83;1.97;;;;;;;;;;512453;28;1469;-77